The Vly, New York
Current Conditions -  °F | °C
As of 5:07 AM on Sunday 21 Dec 2014 (Local Time) from KPOU Reporting Station
Light Snow Light Snow  
Wind Chill: 29°   Ceiling: 2200
Heat Index: 29°   Visibility: 2.5mi
Dew Point: 24°   Wind: 3mph
Humidity: 82%   Direction: 350°N
Pressure: 30.28"   Gusts: NA
Location:  41.8715°N, 74.1782°W
Report Text: KPOU 211007Z AUTO 35003KT 2 1/2SM -SN OVC022 M02/M04 A3028 RMK AO2 P0000 T10171044 TSNO
Loading
Personal Weather Stations






























Interactive Weather Map New forecast layout! Learn more

10-Day Weather Forecast

Advertisements
Track Severe Weather on mobile